sensor_id;sensor_type;location;lat;lon;timestamp;pressure;altitude;pressure_sealevel;temperature;humidity
53932;BME280;39844;52.496;13.482;2024-03-22T00:01:50;101896.38;;;8.20;100.00
53932;BME280;39844;52.496;13.482;2024-03-22T00:04:17;101903.41;;;8.21;100.00
53932;BME280;39844;52.496;13.482;2024-03-22T00:06:43;101900.78;;;8.21;100.00
53932;BME280;39844;52.496;13.482;2024-03-22T00:09:10;101900.72;;;8.19;100.00
53932;BME280;39844;52.496;13.482;2024-03-22T00:11:35;101889.38;;;8.19;100.00
53932;BME280;39844;52.496;13.482;2024-03-22T00:14:01;101887.63;;;8.18;100.00
53932;BME280;39844;52.496;13.482;2024-03-22T00:16:27;101885.81;;;8.15;100.00
53932;BME280;39844;52.496;13.482;2024-03-22T00:18:52;101889.28;;;8.14;100.00
53932;BME280;39844;52.496;13.482;2024-03-22T00:21:18;101879.63;;;8.12;100.00
53932;BME280;39844;52.496;13.482;2024-03-22T00:23:44;101874.41;;;8.12;100.00
53932;BME280;39844;52.496;13.482;2024-03-22T00:26:10;101877.81;;;8.09;100.00
53932;BME280;39844;52.496;13.482;2024-03-22T00:28:35;101874.28;;;8.07;100.00
53932;BME280;39844;52.496;13.482;2024-03-22T00:31:00;101869.94;;;8.08;100.00
53932;BME280;39844;52.496;13.482;2024-03-22T00:33:26;101868.25;;;8.10;100.00
53932;BME280;39844;52.496;13.482;2024-03-22T00:35:51;101872.66;;;8.11;100.00
53932;BME280;39844;52.496;13.482;2024-03-22T00:38:16;101862.22;;;8.12;100.00
53932;BME280;39844;52.496;13.482;2024-03-22T00:40:42;101859.59;;;8.12;100.00
53932;BME280;39844;52.496;13.482;2024-03-22T00:43:07;101862.22;;;8.14;100.00
53932;BME280;39844;52.496;13.482;2024-03-22T00:45:32;101851.78;;;8.14;100.00
53932;BME280;39844;52.496;13.482;2024-03-22T00:47:58;101848.31;;;8.15;100.00
53932;BME280;39844;52.496;13.482;2024-03-22T00:50:23;101849.22;;;8.15;100.00
53932;BME280;39844;52.496;13.482;2024-03-22T00:52:50;101846.63;;;8.17;100.00
53932;BME280;39844;52.496;13.482;2024-03-22T00:55:15;101846.63;;;8.17;100.00
53932;BME280;39844;52.496;13.482;2024-03-22T00:57:41;101851.84;;;8.17;100.00
53932;BME280;39844;52.496;13.482;2024-03-22T01:00:06;101851.03;;;8.19;100.00
53932;BME280;39844;52.496;13.482;2024-03-22T01:02:32;101838.84;;;8.20;100.00
53932;BME280;39844;52.496;13.482;2024-03-22T01:04:57;101832.78;;;8.21;100.00
53932;BME280;39844;52.496;13.482;2024-03-22T01:07:22;101832.78;;;8.21;100.00
53932;BME280;39844;52.496;13.482;2024-03-22T01:09:48;101827.56;;;8.21;100.00
53932;BME280;39844;52.496;13.482;2024-03-22T01:12:13;101834.53;;;8.22;100.00
53932;BME280;39844;52.496;13.482;2024-03-22T01:14:38;101827.56;;;8.21;100.00
53932;BME280;39844;52.496;13.482;2024-03-22T01:17:04;101818.78;;;8.19;100.00
53932;BME280;39844;52.496;13.482;2024-03-22T01:19:29;101817.91;;;8.18;100.00
53932;BME280;39844;52.496;13.482;2024-03-22T01:21:54;101825.69;;;8.17;100.00
53932;BME280;39844;52.496;13.482;2024-03-22T01:24:20;101816.09;;;8.16;100.00
53932;BME280;39844;52.496;13.482;2024-03-22T01:26:45;101816.94;;;8.15;100.00
53932;BME280;39844;52.496;13.482;2024-03-22T01:29:10;101815.13;;;8.11;100.00
53932;BME280;39844;52.496;13.482;2024-03-22T01:31:36;101813.25;;;8.07;100.00
53932;BME280;39844;52.496;13.482;2024-03-22T01:34:01;101816.75;;;8.06;100.00
53932;BME280;39844;52.496;13.482;2024-03-22T01:36:26;101809.72;;;8.05;100.00
53932;BME280;39844;52.496;13.482;2024-03-22T01:38:52;101811.53;;;8.07;100.00
53932;BME280;39844;52.496;13.482;2024-03-22T01:41:17;101808.91;;;8.06;100.00
53932;BME280;39844;52.496;13.482;2024-03-22T01:43:42;101806.28;;;8.06;100.00
53932;BME280;39844;52.496;13.482;2024-03-22T01:46:08;101801.88;;;8.05;100.00
53932;BME280;39844;52.496;13.482;2024-03-22T01:48:34;101798.38;;;8.04;100.00
53932;BME280;39844;52.496;13.482;2024-03-22T01:51:00;101797.53;;;8.05;100.00
53932;BME280;39844;52.496;13.482;2024-03-22T01:53:26;101791.44;;;8.06;100.00
53932;BME280;39844;52.496;13.482;2024-03-22T01:55:51;101786.22;;;8.06;100.00
53932;BME280;39844;52.496;13.482;2024-03-22T01:58:18;101786.22;;;8.06;100.00
53932;BME280;39844;52.496;13.482;2024-03-22T02:00:43;101781.88;;;8.07;100.00
53932;BME280;39844;52.496;13.482;2024-03-22T02:03:09;101781.03;;;8.08;100.00
53932;BME280;39844;52.496;13.482;2024-03-22T02:05:34;101784.56;;;8.08;100.00
53932;BME280;39844;52.496;13.482;2024-03-22T02:07:59;101773.16;;;8.06;100.00
53932;BME280;39844;52.496;13.482;2024-03-22T02:10:25;101777.53;;;8.07;100.00
53932;BME280;39844;52.496;13.482;2024-03-22T02:12:50;101767.97;;;8.08;100.00
53932;BME280;39844;52.496;13.482;2024-03-22T02:15:15;101772.31;;;8.07;100.00
53932;BME280;39844;52.496;13.482;2024-03-22T02:17:41;101773.19;;;8.08;100.00
53932;BME280;39844;52.496;13.482;2024-03-22T02:20:06;101770.59;;;8.09;100.00
53932;BME280;39844;52.496;13.482;2024-03-22T02:22:32;101769.72;;;8.09;100.00
53932;BME280;39844;52.496;13.482;2024-03-22T02:24:57;101762.75;;;8.08;100.00
53932;BME280;39844;52.496;13.482;2024-03-22T02:27:22;101757.50;;;8.08;100.00
53932;BME280;39844;52.496;13.482;2024-03-22T02:29:49;101759.25;;;8.07;100.00
53932;BME280;39844;52.496;13.482;2024-03-22T02:32:15;101754.00;;;8.06;100.00
53932;BME280;39844;52.496;13.482;2024-03-22T02:34:40;101745.25;;;8.05;100.00
53932;BME280;39844;52.496;13.482;2024-03-22T02:37:05;101732.19;;;8.05;100.00
53932;BME280;39844;52.496;13.482;2024-03-22T02:39:31;101730.47;;;8.06;100.00
53932;BME280;39844;52.496;13.482;2024-03-22T02:41:56;101732.19;;;8.05;100.00
53932;BME280;39844;52.496;13.482;2024-03-22T02:44:21;101727.84;;;8.06;100.00
53932;BME280;39844;52.496;13.482;2024-03-22T02:46:47;101724.34;;;8.07;100.00
53932;BME280;39844;52.496;13.482;2024-03-22T02:49:12;101720.00;;;8.07;100.00
53932;BME280;39844;52.496;13.482;2024-03-22T02:51:38;101720.91;;;8.08;100.00
53932;BME280;39844;52.496;13.482;2024-03-22T02:54:04;101722.66;;;8.09;100.00
53932;BME280;39844;52.496;13.482;2024-03-22T02:56:29;101720.00;;;8.07;100.00
53932;BME280;39844;52.496;13.482;2024-03-22T02:58:55;101715.69;;;8.08;100.00
53932;BME280;39844;52.496;13.482;2024-03-22T03:01:20;101706.97;;;8.09;100.00
53932;BME280;39844;52.496;13.482;2024-03-22T03:03:45;101712.19;;;8.09;100.00
53932;BME280;39844;52.496;13.482;2024-03-22T03:06:11;101709.56;;;8.09;100.00
53932;BME280;39844;52.496;13.482;2024-03-22T03:08:36;101700.88;;;8.08;100.00
53932;BME280;39844;52.496;13.482;2024-03-22T03:11:01;101698.22;;;8.07;100.00
53932;BME280;39844;52.496;13.482;2024-03-22T03:13:27;101701.72;;;8.09;100.00
53932;BME280;39844;52.496;13.482;2024-03-22T03:15:52;101700.81;;;8.07;100.00
53932;BME280;39844;52.496;13.482;2024-03-22T03:18:17;101701.72;;;8.07;100.00
53932;BME280;39844;52.496;13.482;2024-03-22T03:20:43;101689.47;;;8.06;100.00
53932;BME280;39844;52.496;13.482;2024-03-22T03:23:08;101686.84;;;8.06;100.00
53932;BME280;39844;52.496;13.482;2024-03-22T03:25:34;101687.75;;;8.07;100.00
53932;BME280;39844;52.496;13.482;2024-03-22T03:27:59;101666.84;;;8.07;100.00
53932;BME280;39844;52.496;13.482;2024-03-22T03:30:24;101661.59;;;8.07;100.00
53932;BME280;39844;52.496;13.482;2024-03-22T03:32:50;101659.00;;;8.07;100.00
53932;BME280;39844;52.496;13.482;2024-03-22T03:35:15;101645.91;;;8.05;100.00
53932;BME280;39844;52.496;13.482;2024-03-22T03:37:42;101638.94;;;8.06;100.00
53932;BME280;39844;52.496;13.482;2024-03-22T03:40:08;101640.69;;;8.07;100.00
53932;BME280;39844;52.496;13.482;2024-03-22T03:42:33;101627.66;;;8.08;100.00
53932;BME280;39844;52.496;13.482;2024-03-22T03:44:59;101640.75;;;8.10;100.00
53932;BME280;39844;52.496;13.482;2024-03-22T03:47:24;101642.53;;;8.11;100.00
53932;BME280;39844;52.496;13.482;2024-03-22T03:49:49;101641.59;;;8.09;100.00
53932;BME280;39844;52.496;13.482;2024-03-22T03:52:15;101648.59;;;8.10;100.00
53932;BME280;39844;52.496;13.482;2024-03-22T03:54:40;101638.13;;;8.10;100.00
53932;BME280;39844;52.496;13.482;2024-03-22T03:57:05;101627.69;;;8.10;100.00
53932;BME280;39844;52.496;13.482;2024-03-22T03:59:31;101626.78;;;8.09;100.00
53932;BME280;39844;52.496;13.482;2024-03-22T04:01:56;101635.53;;;8.10;100.00
53932;BME280;39844;52.496;13.482;2024-03-22T04:04:22;101621.53;;;8.08;100.00
53932;BME280;39844;52.496;13.482;2024-03-22T04:06:47;101611.09;;;8.08;100.00
53932;BME280;39844;52.496;13.482;2024-03-22T04:09:12;101612.78;;;8.06;100.00
53932;BME280;39844;52.496;13.482;2024-03-22T04:11:38;101620.63;;;8.06;100.00
53932;BME280;39844;52.496;13.482;2024-03-22T04:14:04;101611.03;;;8.05;100.00
53932;BME280;39844;52.496;13.482;2024-03-22T04:16:29;101604.91;;;8.04;100.00
53932;BME280;39844;52.496;13.482;2024-03-22T04:18:55;101603.19;;;8.05;100.00
53932;BME280;39844;52.496;13.482;2024-03-22T04:21:20;101597.09;;;8.06;100.00
53932;BME280;39844;52.496;13.482;2024-03-22T04:23:45;101594.50;;;8.06;100.00
53932;BME280;39844;52.496;13.482;2024-03-22T04:26:11;101595.34;;;8.05;100.00
53932;BME280;39844;52.496;13.482;2024-03-22T04:28:36;101591.00;;;8.05;100.00
53932;BME280;39844;52.496;13.482;2024-03-22T04:31:03;101590.09;;;8.05;100.00
53932;BME280;39844;52.496;13.482;2024-03-22T04:33:29;101593.59;;;8.05;100.00
53932;BME280;39844;52.496;13.482;2024-03-22T04:35:56;101579.66;;;8.05;100.00
53932;BME280;39844;52.496;13.482;2024-03-22T04:38:22;101574.41;;;8.03;100.00
53932;BME280;39844;52.496;13.482;2024-03-22T04:40:48;101570.03;;;8.04;100.00
53932;BME280;39844;52.496;13.482;2024-03-22T04:43:16;101560.50;;;8.06;100.00
53932;BME280;39844;52.496;13.482;2024-03-22T04:45:43;101549.16;;;8.05;100.00
53932;BME280;39844;52.496;13.482;2024-03-22T04:48:08;101546.53;;;8.05;100.00
53932;BME280;39844;52.496;13.482;2024-03-22T04:50:33;101543.03;;;8.05;100.00
53932;BME280;39844;52.496;13.482;2024-03-22T04:52:59;101545.66;;;8.05;100.00
53932;BME280;39844;52.496;13.482;2024-03-22T04:55:24;101548.28;;;8.05;100.00
53932;BME280;39844;52.496;13.482;2024-03-22T04:57:51;101543.94;;;8.07;100.00
53932;BME280;39844;52.496;13.482;2024-03-22T05:00:17;101542.22;;;8.07;100.00
53932;BME280;39844;52.496;13.482;2024-03-22T05:02:42;101536.16;;;8.08;100.00
53932;BME280;39844;52.496;13.482;2024-03-22T05:05:08;101541.38;;;8.08;100.00
53932;BME280;39844;52.496;13.482;2024-03-22T05:07:33;101535.25;;;8.08;100.00
53932;BME280;39844;52.496;13.482;2024-03-22T05:09:59;101544.84;;;8.07;100.00
53932;BME280;39844;52.496;13.482;2024-03-22T05:12:24;101535.25;;;8.08;100.00
53932;BME280;39844;52.496;13.482;2024-03-22T05:14:49;101532.66;;;8.08;100.00
53932;BME280;39844;52.496;13.482;2024-03-22T05:17:15;101534.38;;;8.09;100.00
53932;BME280;39844;52.496;13.482;2024-03-22T05:19:40;101526.53;;;8.09;100.00
53932;BME280;39844;52.496;13.482;2024-03-22T05:22:05;101531.84;;;8.12;100.00
53932;BME280;39844;52.496;13.482;2024-03-22T05:24:31;101530.13;;;8.12;100.00
53932;BME280;39844;52.496;13.482;2024-03-22T05:26:56;101524.88;;;8.11;100.00
53932;BME280;39844;52.496;13.482;2024-03-22T05:29:21;101513.53;;;8.12;100.00
53932;BME280;39844;52.496;13.482;2024-03-22T05:31:48;101516.19;;;8.13;100.00
53932;BME280;39844;52.496;13.482;2024-03-22T05:34:14;101510.09;;;8.14;100.00
53932;BME280;39844;52.496;13.482;2024-03-22T05:36:40;101508.38;;;8.16;100.00
53932;BME280;39844;52.496;13.482;2024-03-22T05:39:05;101505.81;;;8.18;100.00
53932;BME280;39844;52.496;13.482;2024-03-22T05:41:30;101499.72;;;8.19;100.00
53932;BME280;39844;52.496;13.482;2024-03-22T05:43:56;101497.16;;;8.22;100.00
53932;BME280;39844;52.496;13.482;2024-03-22T05:46:21;101503.28;;;8.24;100.00
53932;BME280;39844;52.496;13.482;2024-03-22T05:48:46;101498.16;;;8.27;100.00
53932;BME280;39844;52.496;13.482;2024-03-22T05:51:12;101502.56;;;8.30;100.00
53932;BME280;39844;52.496;13.482;2024-03-22T05:53:37;101499.13;;;8.32;100.00
53932;BME280;39844;52.496;13.482;2024-03-22T05:56:02;101490.50;;;8.36;100.00
53932;BME280;39844;52.496;13.482;2024-03-22T05:58:28;101477.44;;;8.39;100.00
53932;BME280;39844;52.496;13.482;2024-03-22T06:00:53;101475.75;;;8.43;100.00
53932;BME280;39844;52.496;13.482;2024-03-22T06:03:18;101472.31;;;8.45;100.00
53932;BME280;39844;52.496;13.482;2024-03-22T06:05:44;101472.38;;;8.50;100.00
53932;BME280;39844;52.496;13.482;2024-03-22T06:08:09;101469.00;;;8.55;100.00
53932;BME280;39844;52.496;13.482;2024-03-22T06:10:34;101470.84;;;8.61;100.00
53932;BME280;39844;52.496;13.482;2024-03-22T06:13:00;101473.56;;;8.67;100.00
53932;BME280;39844;52.496;13.482;2024-03-22T06:15:25;101465.78;;;8.71;99.26
53932;BME280;39844;52.496;13.482;2024-03-22T06:17:50;101466.66;;;8.73;99.09
53932;BME280;39844;52.496;13.482;2024-03-22T06:20:16;101455.38;;;8.77;97.97
53932;BME280;39844;52.496;13.482;2024-03-22T06:22:41;101462.44;;;8.81;97.55
53932;BME280;39844;52.496;13.482;2024-03-22T06:25:06;101448.47;;;8.82;96.64
53932;BME280;39844;52.496;13.482;2024-03-22T06:27:32;101452.03;;;8.84;96.26
53932;BME280;39844;52.496;13.482;2024-03-22T06:29:57;101442.44;;;8.88;96.09
53932;BME280;39844;52.496;13.482;2024-03-22T06:32:22;101449.41;;;8.87;95.42
53932;BME280;39844;52.496;13.482;2024-03-22T06:34:48;101452.09;;;8.90;95.45
53932;BME280;39844;52.496;13.482;2024-03-22T06:37:13;101443.38;;;8.92;95.67
53932;BME280;39844;52.496;13.482;2024-03-22T06:39:38;101445.19;;;8.96;96.15
53932;BME280;39844;52.496;13.482;2024-03-22T06:42:04;101445.22;;;8.99;95.15
53932;BME280;39844;52.496;13.482;2024-03-22T06:44:29;101442.66;;;9.02;95.35
53932;BME280;39844;52.496;13.482;2024-03-22T06:46:55;101446.16;;;9.04;94.94
53932;BME280;39844;52.496;13.482;2024-03-22T06:49:20;101440.09;;;9.05;94.60
53932;BME280;39844;52.496;13.482;2024-03-22T06:51:45;101437.47;;;9.06;94.93
53932;BME280;39844;52.496;13.482;2024-03-22T06:54:11;101435.78;;;9.10;94.24
53932;BME280;39844;52.496;13.482;2024-03-22T06:56:38;101431.44;;;9.12;93.68
53932;BME280;39844;52.496;13.482;2024-03-22T06:59:04;101420.97;;;9.12;93.53
53932;BME280;39844;52.496;13.482;2024-03-22T07:01:29;101423.59;;;9.13;93.21
53932;BME280;39844;52.496;13.482;2024-03-22T07:03:54;101425.38;;;9.14;92.89
53932;BME280;39844;52.496;13.482;2024-03-22T07:06:20;101427.16;;;9.17;92.98
53932;BME280;39844;52.496;13.482;2024-03-22T07:08:45;101414.06;;;9.17;92.83
53932;BME280;39844;52.496;13.482;2024-03-22T07:11:10;101421.94;;;9.20;92.51
53932;BME280;39844;52.496;13.482;2024-03-22T07:13:36;101416.75;;;9.24;93.30
53932;BME280;39844;52.496;13.482;2024-03-22T07:16:02;101415.97;;;9.31;93.21
53932;BME280;39844;52.496;13.482;2024-03-22T07:18:28;101416.91;;;9.35;92.93
53932;BME280;39844;52.496;13.482;2024-03-22T07:20:53;101419.56;;;9.41;92.63
53932;BME280;39844;52.496;13.482;2024-03-22T07:23:18;101417.88;;;9.43;91.80
53932;BME280;39844;52.496;13.482;2024-03-22T07:25:44;101411.81;;;9.47;91.84
53932;BME280;39844;52.496;13.482;2024-03-22T07:28:09;101409.19;;;9.47;91.38
53932;BME280;39844;52.496;13.482;2024-03-22T07:30:34;101403.97;;;9.50;91.09
53932;BME280;39844;52.496;13.482;2024-03-22T07:33:00;101408.38;;;9.52;90.71
53932;BME280;39844;52.496;13.482;2024-03-22T07:35:25;101407.53;;;9.55;90.81
53932;BME280;39844;52.496;13.482;2024-03-22T07:37:50;101414.50;;;9.56;90.05
53932;BME280;39844;52.496;13.482;2024-03-22T07:40:16;101405.78;;;9.57;90.75
53932;BME280;39844;52.496;13.482;2024-03-22T07:42:41;101410.16;;;9.57;90.75
53932;BME280;39844;52.496;13.482;2024-03-22T07:45:07;101397.09;;;9.58;91.12
53932;BME280;39844;52.496;13.482;2024-03-22T07:47:32;101407.56;;;9.61;91.59
53932;BME280;39844;52.496;13.482;2024-03-22T07:49:58;101407.56;;;9.61;90.99
53932;BME280;39844;52.496;13.482;2024-03-22T07:52:23;101397.16;;;9.66;91.88
53932;BME280;39844;52.496;13.482;2024-03-22T07:54:48;101399.81;;;9.70;91.66
53932;BME280;39844;52.496;13.482;2024-03-22T07:57:14;101392.84;;;9.74;91.63
53932;BME280;39844;52.496;13.482;2024-03-22T07:59:39;101401.63;;;9.77;91.31
53932;BME280;39844;52.496;13.482;2024-03-22T08:02:05;101402.56;;;9.81;91.77
53932;BME280;39844;52.496;13.482;2024-03-22T08:04:30;101397.41;;;9.88;92.32
53932;BME280;39844;52.496;13.482;2024-03-22T08:06:55;101398.31;;;9.95;91.90
53932;BME280;39844;52.496;13.482;2024-03-22T08:09:21;101397.47;;;9.97;90.75
53932;BME280;39844;52.496;13.482;2024-03-22T08:11:46;101393.13;;;10.01;90.63
53932;BME280;39844;52.496;13.482;2024-03-22T08:14:11;101387.94;;;10.05;90.26
53932;BME280;39844;52.496;13.482;2024-03-22T08:16:37;101385.38;;;10.11;90.48
53932;BME280;39844;52.496;13.482;2024-03-22T08:19:02;101375.81;;;10.17;90.13
53932;BME280;39844;52.496;13.482;2024-03-22T08:21:27;101374.97;;;10.21;89.69
53932;BME280;39844;52.496;13.482;2024-03-22T08:23:53;101374.13;;;10.25;89.33
53932;BME280;39844;52.496;13.482;2024-03-22T08:26:18;101370.63;;;10.26;89.06
53932;BME280;39844;52.496;13.482;2024-03-22T08:28:47;101369.81;;;10.33;89.00
53932;BME280;39844;52.496;13.482;2024-03-22T08:31:13;101369.84;;;10.36;88.99
53932;BME280;39844;52.496;13.482;2024-03-22T08:33:39;101370.72;;;10.38;88.51
53932;BME280;39844;52.496;13.482;2024-03-22T08:36:04;101376.03;;;10.42;88.28
53932;BME280;39844;52.496;13.482;2024-03-22T08:38:29;101358.53;;;10.44;87.20
53932;BME280;39844;52.496;13.482;2024-03-22T08:40:55;101356.78;;;10.43;86.69
53932;BME280;39844;52.496;13.482;2024-03-22T08:43:21;101339.28;;;10.45;87.53
53932;BME280;39844;52.496;13.482;2024-03-22T08:45:48;101336.72;;;10.50;87.93
53932;BME280;39844;52.496;13.482;2024-03-22T08:48:14;101335.84;;;10.52;87.29
53932;BME280;39844;52.496;13.482;2024-03-22T08:50:42;101319.25;;;10.55;86.71
53932;BME280;39844;52.496;13.482;2024-03-22T08:53:07;101321.03;;;10.62;86.78
53932;BME280;39844;52.496;13.482;2024-03-22T08:55:33;101323.69;;;10.69;86.49
53932;BME280;39844;52.496;13.482;2024-03-22T08:57:58;101315.81;;;10.74;86.05
53932;BME280;39844;52.496;13.482;2024-03-22T09:00:23;101305.34;;;10.82;86.04
53932;BME280;39844;52.496;13.482;2024-03-22T09:02:49;101310.63;;;10.86;85.56
53932;BME280;39844;52.496;13.482;2024-03-22T09:05:14;101300.16;;;10.91;85.35
53932;BME280;39844;52.496;13.482;2024-03-22T09:07:39;101289.66;;;10.95;85.39
53932;BME280;39844;52.496;13.482;2024-03-22T09:10:06;101297.56;;;10.98;84.86
53932;BME280;39844;52.496;13.482;2024-03-22T09:12:31;101296.69;;;11.05;84.52
53932;BME280;39844;52.496;13.482;2024-03-22T09:14:57;101293.22;;;11.11;83.67
53932;BME280;39844;52.496;13.482;2024-03-22T09:17:22;101286.22;;;11.17;83.33
53932;BME280;39844;52.496;13.482;2024-03-22T09:19:47;101284.47;;;11.24;83.64
53932;BME280;39844;52.496;13.482;2024-03-22T09:22:12;101288.03;;;11.33;83.07
53932;BME280;39844;52.496;13.482;2024-03-22T09:24:38;101277.50;;;11.39;81.88
53932;BME280;39844;52.496;13.482;2024-03-22T09:27:03;101267.91;;;11.49;83.25
53932;BME280;39844;52.496;13.482;2024-03-22T09:29:29;101260.00;;;11.63;82.29
53932;BME280;39844;52.496;13.482;2024-03-22T09:31:54;101273.19;;;11.69;81.51
53932;BME280;39844;52.496;13.482;2024-03-22T09:34:19;101263.56;;;11.74;81.10
53932;BME280;39844;52.496;13.482;2024-03-22T09:36:45;101251.28;;;11.79;81.06
53932;BME280;39844;52.496;13.482;2024-03-22T09:39:10;101269.69;;;11.83;81.08
53932;BME280;39844;52.496;13.482;2024-03-22T09:41:42;101273.19;;;11.91;80.87
53932;BME280;39844;52.496;13.482;2024-03-22T09:44:13;101271.41;;;11.98;79.98
53932;BME280;39844;52.496;13.482;2024-03-22T09:46:40;101260.03;;;12.05;79.01
53932;BME280;39844;52.496;13.482;2024-03-22T09:49:09;101262.63;;;12.16;79.53
53932;BME280;39844;52.496;13.482;2024-03-22T09:51:34;101263.47;;;12.24;79.59
53932;BME280;39844;52.496;13.482;2024-03-22T09:54:00;101261.72;;;12.30;78.91
53932;BME280;39844;52.496;13.482;2024-03-22T09:56:27;101253.81;;;12.26;77.95
53932;BME280;39844;52.496;13.482;2024-03-22T09:58:56;101257.38;;;12.20;78.46
53932;BME280;39844;52.496;13.482;2024-03-22T10:01:22;101251.19;;;12.18;78.61
53932;BME280;39844;52.496;13.482;2024-03-22T10:03:48;101249.47;;;12.20;78.54
53932;BME280;39844;52.496;13.482;2024-03-22T10:06:14;101245.94;;;12.27;78.65
53932;BME280;39844;52.496;13.482;2024-03-22T10:08:39;101245.06;;;12.33;77.95
53932;BME280;39844;52.496;13.482;2024-03-22T10:11:04;101245.00;;;12.36;77.05
53932;BME280;39844;52.496;13.482;2024-03-22T10:13:30;101238.00;;;12.42;78.07
53932;BME280;39844;52.496;13.482;2024-03-22T10:15:56;101227.44;;;12.50;77.73
53932;BME280;39844;52.496;13.482;2024-03-22T10:18:22;101242.31;;;12.58;77.24
53932;BME280;39844;52.496;13.482;2024-03-22T10:20:47;101235.25;;;12.69;76.36
53932;BME280;39844;52.496;13.482;2024-03-22T10:23:25;101230.84;;;12.76;75.46
53932;BME280;39844;52.496;13.482;2024-03-22T10:25:50;101218.53;;;12.78;75.81
53932;BME280;39844;52.496;13.482;2024-03-22T10:28:15;101227.31;;;12.77;75.20
53932;BME280;39844;52.496;13.482;2024-03-22T10:30:41;101215.03;;;12.75;75.37
53932;BME280;39844;52.496;13.482;2024-03-22T10:33:08;101217.66;;;12.75;75.90
53932;BME280;39844;52.496;13.482;2024-03-22T10:35:34;101212.38;;;12.81;75.41
53932;BME280;39844;52.496;13.482;2024-03-22T10:38:01;101213.22;;;12.86;75.37
53932;BME280;39844;52.496;13.482;2024-03-22T10:40:28;101209.69;;;12.91;75.72
53932;BME280;39844;52.496;13.482;2024-03-22T10:42:53;101205.25;;;12.96;74.68
53932;BME280;39844;52.496;13.482;2024-03-22T10:45:19;101209.59;;;13.03;74.75
53932;BME280;39844;52.496;13.482;2024-03-22T10:47:44;101195.50;;;13.13;74.36
53932;BME280;39844;52.496;13.482;2024-03-22T10:50:12;101205.06;;;13.28;73.84
53932;BME280;39844;52.496;13.482;2024-03-22T10:52:40;101196.19;;;13.38;73.33
53932;BME280;39844;52.496;13.482;2024-03-22T10:55:15;101199.63;;;13.52;73.74
53932;BME280;39844;52.496;13.482;2024-03-22T10:57:42;101194.25;;;13.61;72.14
53932;BME280;39844;52.496;13.482;2024-03-22T11:00:08;101188.97;;;13.64;71.75
53932;BME280;39844;52.496;13.482;2024-03-22T11:02:34;101180.09;;;13.71;71.97
53932;BME280;39844;52.496;13.482;2024-03-22T11:04:59;101166.81;;;13.79;70.59
53932;BME280;39844;52.496;13.482;2024-03-22T11:07:29;101170.31;;;13.81;70.55
53932;BME280;39844;52.496;13.482;2024-03-22T11:09:58;101160.63;;;13.81;71.25
53932;BME280;39844;52.496;13.482;2024-03-22T11:12:25;101161.50;;;13.85;71.73
53932;BME280;39844;52.496;13.482;2024-03-22T11:14:55;101155.22;;;13.93;71.33
53932;BME280;39844;52.496;13.482;2024-03-22T11:17:20;101148.94;;;14.05;70.97
53932;BME280;39844;52.496;13.482;2024-03-22T11:19:45;101157.72;;;14.07;70.14
53932;BME280;39844;52.496;13.482;2024-03-22T11:22:10;101142.00;;;13.97;69.18
53932;BME280;39844;52.496;13.482;2024-03-22T11:24:37;101138.56;;;13.90;70.44
53932;BME280;39844;52.496;13.482;2024-03-22T11:27:03;101130.66;;;13.90;71.36
53932;BME280;39844;52.496;13.482;2024-03-22T11:29:28;101128.00;;;13.88;70.71
53932;BME280;39844;52.496;13.482;2024-03-22T11:31:53;101127.19;;;13.83;70.91
53932;BME280;39844;52.496;13.482;2024-03-22T11:34:19;101143.09;;;13.76;70.96
53932;BME280;39844;52.496;13.482;2024-03-22T11:36:44;101143.19;;;13.68;71.40
53932;BME280;39844;52.496;13.482;2024-03-22T11:39:09;101139.78;;;13.57;71.32
53932;BME280;39844;52.496;13.482;2024-03-22T11:41:35;101140.78;;;13.43;72.01
53932;BME280;39844;52.496;13.482;2024-03-22T11:44:01;101129.44;;;13.33;72.97
53932;BME280;39844;52.496;13.482;2024-03-22T11:46:27;101132.16;;;13.25;73.44
53932;BME280;39844;52.496;13.482;2024-03-22T11:48:53;101139.25;;;13.16;73.78
53932;BME280;39844;52.496;13.482;2024-03-22T11:51:19;101134.03;;;13.10;74.16
53932;BME280;39844;52.496;13.482;2024-03-22T11:53:51;101135.81;;;13.03;73.75
53932;BME280;39844;52.496;13.482;2024-03-22T11:56:20;101132.31;;;13.00;74.85
53932;BME280;39844;52.496;13.482;2024-03-22T11:58:46;101116.50;;;12.97;75.07
53932;BME280;39844;52.496;13.482;2024-03-22T12:01:12;101124.41;;;12.97;76.17
53932;BME280;39844;52.496;13.482;2024-03-22T12:03:38;101119.19;;;12.95;76.10
53932;BME280;39844;52.496;13.482;2024-03-22T12:06:04;101113.06;;;12.93;76.79
53932;BME280;39844;52.496;13.482;2024-03-22T12:08:29;101105.13;;;12.92;77.74
53932;BME280;39844;52.496;13.482;2024-03-22T12:10:54;101113.94;;;12.91;78.96
53932;BME280;39844;52.496;13.482;2024-03-22T12:13:19;101104.28;;;12.91;80.48
53932;BME280;39844;52.496;13.482;2024-03-22T12:15:45;101096.41;;;12.88;80.79
53932;BME280;39844;52.496;13.482;2024-03-22T12:18:10;101099.94;;;12.83;80.79
53932;BME280;39844;52.496;13.482;2024-03-22T12:20:35;101096.50;;;12.76;81.52
53932;BME280;39844;52.496;13.482;2024-03-22T12:23:01;101097.41;;;12.71;83.24
53932;BME280;39844;52.496;13.482;2024-03-22T12:25:26;101094.78;;;12.67;84.64
53932;BME280;39844;52.496;13.482;2024-03-22T12:27:51;101090.44;;;12.62;86.39
53932;BME280;39844;52.496;13.482;2024-03-22T12:30:17;101090.44;;;12.56;87.27
53932;BME280;39844;52.496;13.482;2024-03-22T12:32:42;101081.75;;;12.46;87.64